createdAt,value
2022-08-17T00:00:42.724Z,99033.75
2022-08-17T00:03:08.239Z,99044.31
2022-08-17T00:05:42.364Z,99041.53
2022-08-17T00:08:11.988Z,99035.50
2022-08-17T00:10:39.968Z,99038.09
2022-08-17T00:13:09.630Z,99031.59
2022-08-17T00:15:38.234Z,99031.47
2022-08-17T00:19:00.360Z,99036.69
2022-08-17T00:20:55.742Z,99035.84
2022-08-17T00:23:25.945Z,99028.03
2022-08-17T00:25:54.581Z,99034.19
2022-08-17T00:28:22.636Z,99038.16
2022-08-17T00:30:53.854Z,99032.38
2022-08-17T00:33:25.473Z,99033.44
2022-08-17T00:35:54.676Z,99040.22
2022-08-17T00:38:23.690Z,99031.88
2022-08-17T00:40:59.266Z,99043.66
2022-08-17T00:43:32.165Z,99039.50
2022-08-17T00:46:00.792Z,99045.78
2022-08-17T00:48:30.781Z,99048.56
2022-08-17T00:51:04.626Z,99041.34
2022-08-17T00:53:35.013Z,99036.72
2022-08-17T00:56:08.747Z,99039.16
2022-08-17T00:58:37.333Z,99050.56
2022-08-17T01:01:07.657Z,99039.63
2022-08-17T01:03:38.176Z,99053.25
2022-08-17T01:06:09.057Z,99054.09
2022-08-17T01:08:39.956Z,99060.03
2022-08-17T01:11:09.431Z,99055.16
2022-08-17T01:13:41.405Z,99053.44
2022-08-17T01:16:15.912Z,99052.63
2022-08-17T01:18:45.449Z,99054.34
2022-08-17T01:21:21.361Z,99047.78
2022-08-17T01:23:50.773Z,99043.16
2022-08-17T01:26:19.310Z,99049.84
2022-08-17T01:28:54.437Z,99043.00
2022-08-17T01:31:29.203Z,99051.53
2022-08-17T01:33:59.448Z,99054.88
2022-08-17T01:36:30.465Z,99055.13
2022-08-17T01:39:00.130Z,99050.03
2022-08-17T01:41:29.300Z,99055.69
2022-08-17T01:44:01.318Z,99065.13
2022-08-17T01:46:33.399Z,99070.50
2022-08-17T01:49:01.894Z,99070.81
2022-08-17T01:51:32.850Z,99068.31
2022-08-17T01:54:05.156Z,99073.94
2022-08-17T01:56:35.145Z,99065.41
2022-08-17T01:59:03.134Z,99062.94
2022-08-17T02:01:34.610Z,99062.16
2022-08-17T02:04:03.821Z,99052.66
2022-08-17T02:06:44.995Z,99061.50
2022-08-17T02:09:25.178Z,99035.91
2022-08-17T02:11:54.327Z,99050.00
2022-08-17T02:14:23.348Z,99052.38
2022-08-17T02:16:51.823Z,99054.91
2022-08-17T02:19:19.903Z,99054.16
2022-08-17T02:21:50.455Z,99044.06
2022-08-17T02:25:00.187Z,99046.63
2022-08-17T02:27:10.901Z,99039.34
2022-08-17T02:29:38.866Z,99043.63
2022-08-17T02:32:07.636Z,99040.03
2022-08-17T02:34:35.584Z,99039.16
2022-08-17T02:37:03.485Z,99050.44
2022-08-17T02:39:31.538Z,99043.00
2022-08-17T02:42:02.575Z,99045.50
2022-08-17T02:44:39.326Z,99039.72
2022-08-17T02:47:08.666Z,99053.75
2022-08-17T02:49:36.714Z,99057.28
2022-08-17T02:52:06.610Z,99058.25
2022-08-17T02:54:39.207Z,99060.44
2022-08-17T02:57:10.701Z,99061.75
2022-08-17T02:59:43.213Z,99068.31
2022-08-17T03:02:16.368Z,99069.03
2022-08-17T03:04:44.323Z,99068.53
2022-08-17T03:07:12.825Z,99063.66
2022-08-17T03:09:40.705Z,99068.50
2022-08-17T03:12:11.163Z,99073.00
2022-08-17T03:14:42.701Z,99069.31
2022-08-17T03:17:15.887Z,99074.28
2022-08-17T03:19:45.691Z,99062.06
2022-08-17T03:22:36.804Z,99060.78
2022-08-17T03:25:01.540Z,99066.47
2022-08-17T03:27:30.024Z,99073.16
2022-08-17T03:29:59.386Z,99071.38
2022-08-17T03:32:27.629Z,99063.84
2022-08-17T03:35:00.193Z,99068.13
2022-08-17T03:37:28.323Z,99066.66
2022-08-17T03:39:56.299Z,99060.72
2022-08-17T03:42:32.168Z,99069.97
2022-08-17T03:45:03.482Z,99068.31
2022-08-17T03:47:49.233Z,99061.66
2022-08-17T03:50:35.400Z,99064.44
2022-08-17T03:53:24.680Z,99071.38
2022-08-17T03:56:09.921Z,99074.66
2022-08-17T03:58:37.879Z,99081.44
2022-08-17T04:01:08.162Z,99077.13
2022-08-17T04:03:36.152Z,99077.03
2022-08-17T04:06:04.169Z,99069.53
2022-08-17T04:08:32.574Z,99080.47
2022-08-17T04:11:02.095Z,99078.78
2022-08-17T04:13:30.143Z,99077.66
2022-08-17T04:15:59.863Z,99079.22
2022-08-17T04:18:29.178Z,99074.78
2022-08-17T04:20:57.111Z,99087.59
2022-08-17T04:23:32.619Z,99087.72
2022-08-17T04:26:00.879Z,99088.94
2022-08-17T04:28:29.972Z,99090.00
2022-08-17T04:30:58.457Z,99097.34
2022-08-17T04:33:28.447Z,99085.28
2022-08-17T04:35:59.818Z,99096.88
2022-08-17T04:38:33.488Z,99093.19
2022-08-17T04:41:20.093Z,99105.09
2022-08-17T04:43:49.706Z,99101.75
2022-08-17T04:46:19.693Z,99107.97
2022-08-17T04:48:49.995Z,99101.09
2022-08-17T04:51:22.495Z,99091.25
2022-08-17T04:53:54.381Z,99106.78
2022-08-17T04:56:25.777Z,99106.84
2022-08-17T04:58:55.825Z,99106.94
2022-08-17T05:01:26.417Z,99117.09
2022-08-17T05:03:56.164Z,99117.22
2022-08-17T05:06:26.718Z,99117.97
2022-08-17T05:08:54.802Z,99117.59
2022-08-17T05:11:25.484Z,99112.69
2022-08-17T05:13:53.883Z,99118.69
2022-08-17T05:16:23.333Z,99115.00
2022-08-17T05:18:51.488Z,99117.25
2022-08-17T05:21:20.593Z,99124.47
2022-08-17T05:23:56.333Z,99122.53
2022-08-17T05:26:27.240Z,99125.63
2022-08-17T05:29:00.395Z,99129.00
2022-08-17T05:31:31.408Z,99135.03
2022-08-17T05:33:59.389Z,99142.75
2022-08-17T05:36:37.920Z,99137.09
2022-08-17T05:39:16.203Z,99130.31
2022-08-17T05:41:47.587Z,99128.34
2022-08-17T05:44:15.813Z,99132.34
2022-08-17T05:46:49.817Z,99131.28
2022-08-17T05:49:22.184Z,99129.28
2022-08-17T05:52:27.418Z,99133.31
2022-08-17T05:55:06.721Z,99127.13
2022-08-17T05:57:53.197Z,99129.44
2022-08-17T06:00:30.714Z,99130.13
2022-08-17T06:03:19.664Z,99127.34
2022-08-17T06:05:59.287Z,99128.09
2022-08-17T06:08:34.917Z,99138.94
2022-08-17T06:11:15.975Z,99137.94
2022-08-17T06:14:04.979Z,99133.56
2022-08-17T06:16:37.265Z,99135.13
2022-08-17T06:19:12.557Z,99134.94
2022-08-17T06:21:43.918Z,99130.59
2022-08-17T06:24:24.764Z,99127.97
2022-08-17T06:26:56.322Z,99145.50
2022-08-17T06:29:35.356Z,99138.75
2022-08-17T06:32:04.242Z,99132.16
2022-08-17T06:34:33.878Z,99134.41
2022-08-17T06:37:09.570Z,99126.75
2022-08-17T06:39:49.781Z,99131.66
2022-08-17T06:42:54.619Z,99131.22
2022-08-17T06:45:22.725Z,99122.22
2022-08-17T06:47:56.508Z,99128.72
2022-08-17T06:50:30.789Z,99125.91
2022-08-17T06:53:04.428Z,99124.13
2022-08-17T06:55:38.429Z,99118.19
2022-08-17T06:58:15.692Z,99114.69
2022-08-17T07:00:47.926Z,99128.97
2022-08-17T07:03:27.480Z,99115.22
2022-08-17T07:05:59.973Z,99119.03
2022-08-17T07:08:35.055Z,99124.66
2022-08-17T07:11:07.882Z,99119.22
2022-08-17T07:13:52.996Z,99113.88
2022-08-17T07:16:25.509Z,99122.78
2022-08-17T07:18:55.476Z,99121.72
2022-08-17T07:21:38.460Z,99123.19
2022-08-17T07:24:30.842Z,99120.38
2022-08-17T07:27:12.604Z,99124.41
2022-08-17T07:29:51.025Z,99127.66
2022-08-17T07:32:26.338Z,99119.78
2022-08-17T07:35:17.347Z,99121.22
2022-08-17T07:37:53.126Z,99112.38
2022-08-17T07:40:31.296Z,99125.56
2022-08-17T07:43:22.210Z,99120.25
2022-08-17T07:46:29.680Z,99130.91
2022-08-17T07:49:16.738Z,99125.63
2022-08-17T07:51:57.078Z,99123.63
2022-08-17T07:54:35.654Z,99129.53
2022-08-17T07:57:29.887Z,99123.38
2022-08-17T08:00:26.689Z,99107.38
2022-08-17T08:03:21.757Z,99112.09
2022-08-17T08:05:55.090Z,99135.38
2022-08-17T08:08:29.120Z,99120.66
2022-08-17T08:11:04.303Z,99126.28
2022-08-17T08:13:33.432Z,99127.81
2022-08-17T08:16:26.082Z,99127.50
2022-08-17T08:18:58.510Z,99121.28
2022-08-17T08:21:34.233Z,99120.19
2022-08-17T08:24:19.516Z,99114.91
2022-08-17T08:26:56.808Z,99121.28
2022-08-17T08:29:31.333Z,99124.63
2022-08-17T08:32:06.204Z,99120.28
2022-08-17T08:35:01.607Z,99118.16
2022-08-17T08:37:49.418Z,99118.94
2022-08-17T08:40:34.436Z,99111.94
2022-08-17T08:43:12.551Z,99107.56
2022-08-17T08:45:57.105Z,99112.56
2022-08-17T08:48:56.189Z,99102.88
2022-08-17T08:51:38.164Z,99096.56
2022-08-17T08:54:15.547Z,99102.06
2022-08-17T08:57:21.421Z,99098.47
2022-08-17T08:59:44.906Z,99097.28
2022-08-17T09:02:42.686Z,99088.06
2022-08-17T09:05:22.309Z,99103.03
2022-08-17T09:08:02.154Z,99100.16
2022-08-17T09:10:34.799Z,99103.41
2022-08-17T09:13:10.097Z,99099.72
2022-08-17T09:15:44.641Z,99106.97
2022-08-17T09:19:00.512Z,99100.00
2022-08-17T09:21:21.445Z,99096.53
2022-08-17T09:24:04.866Z,99098.66
2022-08-17T09:26:41.214Z,99095.00
2022-08-17T09:29:16.574Z,99092.97
2022-08-17T09:31:51.152Z,99088.44
2022-08-17T09:34:31.899Z,99083.06
2022-08-17T09:37:14.996Z,99076.84
2022-08-17T09:39:52.875Z,99089.94
2022-08-17T09:42:27.675Z,99084.72
2022-08-17T09:45:07.989Z,99090.56
2022-08-17T09:47:45.427Z,99099.19
2022-08-17T09:50:20.113Z,99097.72
2022-08-17T09:53:09.032Z,99091.09
2022-08-17T09:55:52.927Z,99094.75
2022-08-17T09:58:31.142Z,99087.63
2022-08-17T10:01:09.086Z,99085.06
2022-08-17T10:04:00.367Z,99077.78
2022-08-17T10:06:33.600Z,99076.94
2022-08-17T10:09:09.670Z,99092.13
2022-08-17T10:12:01.581Z,99083.34
2022-08-17T10:14:37.681Z,99088.00
2022-08-17T10:17:18.717Z,99082.34
2022-08-17T10:19:55.917Z,99089.06
2022-08-17T10:22:53.065Z,99083.44
2022-08-17T10:25:54.689Z,99081.03
2022-08-17T10:28:30.605Z,99081.16
2022-08-17T10:31:33.320Z,99079.34
2022-08-17T10:34:02.181Z,99078.63
2022-08-17T10:36:43.209Z,99091.00
2022-08-17T10:39:23.594Z,99090.06
2022-08-17T10:41:56.742Z,99084.69
2022-08-17T10:44:42.398Z,99081.03
2022-08-17T10:47:13.032Z,99088.25
2022-08-17T10:49:47.379Z,99080.72
2022-08-17T10:52:49.265Z,99071.22
2022-08-17T10:55:19.963Z,99060.09
2022-08-17T10:57:50.636Z,99072.22
2022-08-17T11:00:59.544Z,99074.81
2022-08-17T11:03:27.826Z,99078.44
2022-08-17T11:06:09.505Z,99073.50
2022-08-17T11:09:11.710Z,99078.34
2022-08-17T11:12:07.248Z,99080.28
2022-08-17T11:14:48.896Z,99079.13
2022-08-17T11:17:32.609Z,99070.66
2022-08-17T11:20:23.625Z,99073.38
2022-08-17T11:23:10.271Z,99062.13
2022-08-17T11:25:40.561Z,99063.88
2022-08-17T11:28:19.816Z,99059.88
2022-08-17T11:30:52.087Z,99057.50
2022-08-17T11:34:02.147Z,99058.22
2022-08-17T11:36:49.655Z,99047.19
2022-08-17T11:39:34.336Z,99044.00
2022-08-17T11:42:08.678Z,99041.88
2022-08-17T11:44:52.347Z,99037.91
2022-08-17T11:47:57.011Z,99052.53
2022-08-17T11:51:02.881Z,99054.00
2022-08-17T11:54:31.223Z,99034.22
2022-08-17T11:56:52.888Z,99024.00
2022-08-17T11:59:54.796Z,99022.06
2022-08-17T12:02:48.234Z,99028.88
2022-08-17T12:05:37.143Z,99018.81
2022-08-17T12:08:14.781Z,99012.00
2022-08-17T12:10:54.089Z,99017.59
2022-08-17T12:13:23.702Z,99004.72
2022-08-17T12:16:02.292Z,99003.34
2022-08-17T12:18:35.663Z,99005.69
2022-08-17T12:21:28.278Z,99003.75
2022-08-17T12:24:03.269Z,99005.09
2022-08-17T12:26:33.885Z,98996.53
2022-08-17T12:29:04.400Z,99003.91
2022-08-17T12:31:37.634Z,98997.88
2022-08-17T12:34:06.038Z,99005.22
2022-08-17T12:36:36.512Z,98999.88
2022-08-17T12:39:13.797Z,99005.31
2022-08-17T12:41:46.808Z,98988.47
2022-08-17T12:44:18.158Z,99004.41
2022-08-17T12:46:50.514Z,99001.59
2022-08-17T12:49:31.896Z,99009.13
2022-08-17T12:52:15.203Z,99003.34
2022-08-17T12:54:50.466Z,98998.56
2022-08-17T12:57:21.609Z,98997.75
2022-08-17T12:59:54.276Z,98997.84
2022-08-17T13:02:42.307Z,99003.56
2022-08-17T13:05:20.945Z,98999.53
2022-08-17T13:07:50.924Z,99000.97
2022-08-17T13:10:23.130Z,99004.56
2022-08-17T13:12:52.438Z,98990.78
2022-08-17T13:15:29.668Z,98988.25
2022-08-17T13:18:02.131Z,98981.41
2022-08-17T13:20:30.160Z,98985.44
2022-08-17T13:23:01.603Z,98981.47
2022-08-17T13:25:30.929Z,98975.00
2022-08-17T13:27:59.289Z,98982.44
2022-08-17T13:30:32.588Z,98984.59
2022-08-17T13:33:04.137Z,98982.13
2022-08-17T13:35:41.917Z,98979.16
2022-08-17T13:38:16.731Z,98973.88
2022-08-17T13:40:50.236Z,98971.03
2022-08-17T13:43:40.938Z,98966.22
2022-08-17T13:46:11.960Z,98966.69
2022-08-17T13:48:40.325Z,98950.16
2022-08-17T13:51:33.522Z,98961.44
2022-08-17T13:54:20.033Z,98956.03
2022-08-17T13:56:58.745Z,98955.31
2022-08-17T13:59:53.275Z,98944.28
2022-08-17T14:02:21.079Z,98957.50
2022-08-17T14:04:49.289Z,98959.56
2022-08-17T14:07:29.602Z,98953.13
2022-08-17T14:10:03.207Z,98952.22
2022-08-17T14:12:34.296Z,98953.38
2022-08-17T14:15:03.327Z,98956.91
2022-08-17T14:17:36.549Z,98960.38
2022-08-17T14:20:09.457Z,98957.41
2022-08-17T14:22:40.188Z,98951.13
2022-08-17T14:25:10.887Z,98950.75
2022-08-17T14:27:51.819Z,98955.25
2022-08-17T14:30:24.216Z,98951.50
2022-08-17T14:32:53.609Z,98938.69
2022-08-17T14:35:24.387Z,98950.84
2022-08-17T14:37:53.401Z,98953.78
2022-08-17T14:40:25.410Z,98946.09
2022-08-17T14:42:55.214Z,98948.94
2022-08-17T14:45:29.980Z,98955.72
2022-08-17T14:48:00.414Z,98950.84
2022-08-17T14:50:28.373Z,98959.84
2022-08-17T14:52:57.960Z,98960.81
2022-08-17T14:55:29.728Z,98953.28
2022-08-17T14:57:58.000Z,98954.75
2022-08-17T15:00:26.834Z,98964.75
2022-08-17T15:02:58.864Z,98970.75
2022-08-17T15:05:31.417Z,98963.19
2022-08-17T15:07:59.778Z,98958.69
2022-08-17T15:10:29.766Z,98954.22
2022-08-17T15:12:58.115Z,98963.22
2022-08-17T15:15:26.751Z,98958.06
2022-08-17T15:17:55.790Z,98961.09
2022-08-17T15:20:26.723Z,98956.63
2022-08-17T15:22:57.101Z,98958.88
2022-08-17T15:25:26.100Z,98962.34
2022-08-17T15:27:55.949Z,98957.31
2022-08-17T15:30:25.700Z,98962.84
2022-08-17T15:32:55.548Z,98961.94
2022-08-17T15:35:28.731Z,98958.25
2022-08-17T15:38:08.072Z,98954.56
2022-08-17T15:40:41.632Z,98956.63
2022-08-17T15:43:13.239Z,98944.00
2022-08-17T15:45:41.516Z,98946.16
2022-08-17T15:48:09.940Z,98940.31
2022-08-17T15:50:38.406Z,98953.22
2022-08-17T15:53:06.334Z,98961.53
2022-08-17T15:55:36.625Z,98951.38
2022-08-17T15:58:04.763Z,98956.81
2022-08-17T16:00:36.400Z,98955.53
2022-08-17T16:03:59.386Z,98956.44
2022-08-17T16:06:09.508Z,98952.28
2022-08-17T16:08:41.506Z,98953.97
2022-08-17T16:11:09.905Z,98954.09
2022-08-17T16:13:39.654Z,98945.91
2022-08-17T16:16:10.326Z,98941.81
2022-08-17T16:18:39.461Z,98937.28
2022-08-17T16:21:29.682Z,98945.75
2022-08-17T16:24:02.225Z,98946.19
2022-08-17T16:26:32.086Z,98944.53
2022-08-17T16:29:02.134Z,98933.88
2022-08-17T16:31:32.246Z,98944.53
2022-08-17T16:34:15.722Z,98945.38
2022-08-17T16:36:55.763Z,98948.63
2022-08-17T16:39:25.994Z,98950.13
2022-08-17T16:41:54.093Z,98946.44
2022-08-17T16:44:22.963Z,98949.41
2022-08-17T16:46:52.410Z,98957.34
2022-08-17T16:49:35.261Z,98956.00
2022-08-17T16:52:06.664Z,98953.47
2022-08-17T16:54:35.455Z,98957.53
2022-08-17T16:57:05.013Z,98954.47
2022-08-17T16:59:42.146Z,98961.28
2022-08-17T17:02:14.997Z,98959.44
2022-08-17T17:04:51.574Z,98967.81
2022-08-17T17:07:49.611Z,98958.81
2022-08-17T17:10:21.329Z,98962.75
2022-08-17T17:13:02.594Z,98963.84
2022-08-17T17:15:45.941Z,98960.16
2022-08-17T17:18:16.963Z,98958.94
2022-08-17T17:20:54.670Z,98959.56
2022-08-17T17:23:36.410Z,98962.66
2022-08-17T17:26:24.575Z,98960.34
2022-08-17T17:29:03.938Z,98971.88
2022-08-17T17:31:38.062Z,98977.69
2022-08-17T17:34:11.680Z,98976.59
2022-08-17T17:36:42.991Z,98970.31
2022-08-17T17:39:14.270Z,98978.44
2022-08-17T17:41:47.584Z,98979.56
2022-08-17T17:44:19.891Z,98982.31
2022-08-17T17:46:52.059Z,98983.41
2022-08-17T17:49:22.009Z,98988.47
2022-08-17T17:52:09.683Z,98992.66
2022-08-17T17:54:58.335Z,99001.28
2022-08-17T17:57:36.142Z,98999.31
2022-08-17T18:00:09.181Z,98994.78
2022-08-17T18:02:54.498Z,98993.19
2022-08-17T18:05:53.679Z,98975.44
2022-08-17T18:08:37.540Z,98990.28
2022-08-17T18:11:23.940Z,98992.00
2022-08-17T18:14:14.393Z,98997.25
2022-08-17T18:16:43.217Z,99001.34
2022-08-17T18:19:14.146Z,99007.31
2022-08-17T18:21:46.899Z,99011.84
2022-08-17T18:24:15.034Z,99018.41
2022-08-17T18:26:48.002Z,99013.81
2022-08-17T18:29:25.013Z,99017.50
2022-08-17T18:32:16.001Z,99029.03
2022-08-17T18:34:47.783Z,99017.72
2022-08-17T18:37:36.196Z,99019.03
2022-08-17T18:40:31.585Z,99024.56
2022-08-17T18:43:04.835Z,99033.22
2022-08-17T18:45:38.193Z,99034.31
2022-08-17T18:48:17.633Z,99034.59
2022-08-17T18:50:46.122Z,99028.34
2022-08-17T18:53:38.221Z,99037.25
2022-08-17T18:56:25.794Z,99048.84
2022-08-17T18:59:03.520Z,99045.72
2022-08-17T19:01:53.759Z,99044.97
2022-08-17T19:04:34.977Z,99053.63
2022-08-17T19:07:09.776Z,99053.63
2022-08-17T19:09:43.766Z,99046.06
2022-08-17T19:12:27.021Z,99052.22
2022-08-17T19:14:57.918Z,99043.31
2022-08-17T19:17:33.221Z,99061.59
2022-08-17T19:20:06.829Z,99062.31
2022-08-17T19:22:46.518Z,99060.00
2022-08-17T19:25:20.033Z,99066.06
2022-08-17T19:27:57.810Z,99055.34
2022-08-17T19:30:26.518Z,99068.75
2022-08-17T19:32:57.652Z,99066.84
2022-08-17T19:35:34.489Z,99068.41
2022-08-17T19:38:13.348Z,99065.00
2022-08-17T19:41:00.894Z,99054.81
2022-08-17T19:43:47.883Z,99058.03
2022-08-17T19:46:26.053Z,99063.19
2022-08-17T19:49:07.062Z,99060.69
2022-08-17T19:51:40.878Z,99066.00
2022-08-17T19:54:16.149Z,99065.44
2022-08-17T19:56:55.664Z,99070.00
2022-08-17T19:59:36.041Z,99069.19
2022-08-17T20:02:23.041Z,99072.94
2022-08-17T20:04:54.166Z,99063.75
2022-08-17T20:07:26.762Z,99064.16
2022-08-17T20:10:00.230Z,99063.69
2022-08-17T20:12:34.764Z,99059.78
2022-08-17T20:15:09.394Z,99051.47
2022-08-17T20:17:40.097Z,99043.19
2022-08-17T20:20:20.712Z,99052.81
2022-08-17T20:22:59.012Z,99042.03
2022-08-17T20:25:36.533Z,99041.88
2022-08-17T20:28:16.410Z,99054.97
2022-08-17T20:30:44.984Z,99038.78
2022-08-17T20:33:25.317Z,99056.78
2022-08-17T20:36:13.004Z,99048.31
2022-08-17T20:38:44.372Z,99044.44
2022-08-17T20:41:16.909Z,99050.38
2022-08-17T20:43:52.072Z,99064.25
2022-08-17T20:46:31.072Z,99059.25
2022-08-17T20:49:14.663Z,99056.88
2022-08-17T20:52:01.193Z,99060.50
2022-08-17T20:54:44.372Z,99057.38
2022-08-17T20:57:47.755Z,99058.53
2022-08-17T21:00:42.957Z,99055.66
2022-08-17T21:03:50.133Z,99057.38
2022-08-17T21:06:21.695Z,99058.16
2022-08-17T21:08:54.332Z,99058.75
2022-08-17T21:11:58.237Z,99067.22
2022-08-17T21:14:56.122Z,99067.13
2022-08-17T21:17:44.489Z,99062.91
2022-08-17T21:20:32.158Z,99052.78
2022-08-17T21:23:25.325Z,99052.38
2022-08-17T21:26:12.911Z,99046.16
2022-08-17T21:29:00.379Z,99057.13
2022-08-17T21:31:34.761Z,99059.75
2022-08-17T21:34:28.089Z,99065.06
2022-08-17T21:36:57.634Z,99063.31
2022-08-17T21:39:41.204Z,99071.16
2022-08-17T21:42:09.338Z,99068.94
2022-08-17T21:44:41.585Z,99053.06
2022-08-17T21:47:19.209Z,99063.78
2022-08-17T21:49:49.333Z,99072.25
2022-08-17T21:52:21.345Z,99073.16
2022-08-17T21:54:52.937Z,99064.09
2022-08-17T21:57:23.253Z,99079.25
2022-08-17T21:59:57.116Z,99079.91
2022-08-17T22:02:27.920Z,99086.53
2022-08-17T22:05:03.226Z,99104.97
2022-08-17T22:07:37.342Z,99110.41
2022-08-17T22:10:08.529Z,99109.28
2022-08-17T22:12:36.595Z,99116.50
2022-08-17T22:15:09.578Z,99118.00
2022-08-17T22:17:46.111Z,99119.66
2022-08-17T22:20:18.829Z,99119.72
2022-08-17T22:23:25.025Z,99124.28
2022-08-17T22:26:02.332Z,99123.84
2022-08-17T22:28:43.020Z,99134.25
2022-08-17T22:31:14.423Z,99137.16
2022-08-17T22:33:47.551Z,99132.22
2022-08-17T22:36:29.262Z,99137.69
2022-08-17T22:38:59.327Z,99135.63
2022-08-17T22:41:40.492Z,99124.69
2022-08-17T22:44:15.333Z,99117.28
2022-08-17T22:46:52.906Z,99117.00
2022-08-17T22:49:29.127Z,99102.56
2022-08-17T22:52:08.001Z,99113.59
2022-08-17T22:54:53.700Z,99096.47
2022-08-17T22:57:42.165Z,99129.06
2022-08-17T23:00:29.710Z,99129.94
2022-08-17T23:03:17.778Z,99141.19
2022-08-17T23:05:49.776Z,99142.97
2022-08-17T23:08:21.392Z,99137.91
2022-08-17T23:10:50.184Z,99135.66
2022-08-17T23:13:18.102Z,99127.56
2022-08-17T23:15:48.093Z,99129.63
2022-08-17T23:18:17.764Z,99132.38
2022-08-17T23:20:46.382Z,99137.75
2022-08-17T23:23:15.329Z,99142.88
2022-08-17T23:25:45.771Z,99135.97
2022-08-17T23:28:14.149Z,99141.09
2022-08-17T23:30:44.670Z,99140.41
2022-08-17T23:33:19.451Z,99130.38
2022-08-17T23:35:47.356Z,99120.44
2022-08-17T23:38:15.329Z,99123.47
2022-08-17T23:40:44.707Z,99123.38
2022-08-17T23:43:23.991Z,99107.56
2022-08-17T23:45:54.950Z,99108.88
2022-08-17T23:48:32.687Z,99107.25
2022-08-17T23:51:09.676Z,99096.81
2022-08-17T23:53:40.165Z,99096.13
2022-08-17T23:56:11.295Z,99092.22
2022-08-17T23:58:43.515Z,99084.72
